createdAt,value
2018-04-01T00:00:14.615Z,3.10
2018-04-01T00:02:40.560Z,3.10
2018-04-01T00:05:06.516Z,3.10
2018-04-01T00:07:32.466Z,3.10
2018-04-01T00:09:58.387Z,3.10
2018-04-01T00:12:24.338Z,3.10
2018-04-01T00:14:51.007Z,3.10
2018-04-01T00:17:16.938Z,3.10
2018-04-01T00:19:42.874Z,3.10
2018-04-01T00:22:08.819Z,3.10
2018-04-01T00:24:34.778Z,3.30
2018-04-01T00:27:01.461Z,3.10
2018-04-01T00:29:27.391Z,3.10
2018-04-01T00:31:53.359Z,3.10
2018-04-01T00:34:20.023Z,3.10
2018-04-01T00:36:45.934Z,3.10
2018-04-01T00:39:11.866Z,3.20
2018-04-01T00:41:38.515Z,3.10
2018-04-01T00:44:04.437Z,3.10
2018-04-01T00:46:30.334Z,3.20
2018-04-01T00:48:56.327Z,3.40
2018-04-01T00:51:22.250Z,3.20
2018-04-01T00:53:48.929Z,3.10
2018-04-01T00:56:14.851Z,3.00
2018-04-01T00:58:40.778Z,3.10
2018-04-01T01:01:06.731Z,3.30
2018-04-01T01:03:32.693Z,3.20
2018-04-01T01:05:59.366Z,3.10
2018-04-01T01:08:25.308Z,3.10
2018-04-01T01:10:51.287Z,3.10
2018-04-01T01:13:17.227Z,3.00
2018-04-01T01:15:43.154Z,3.10
2018-04-01T01:18:09.104Z,3.10
2018-04-01T01:20:35.039Z,3.20
2018-04-01T01:23:00.972Z,3.20
2018-04-01T01:25:27.671Z,3.10
2018-04-01T01:27:53.628Z,3.10
2018-04-01T01:30:19.680Z,3.10
2018-04-01T01:32:45.620Z,3.10
2018-04-01T01:35:11.575Z,2.90
2018-04-01T01:37:37.502Z,3.10
2018-04-01T01:40:03.446Z,3.20
2018-04-01T01:42:29.381Z,3.10
2018-04-01T01:44:56.079Z,2.90
2018-04-01T01:47:22.015Z,2.90
2018-04-01T01:49:47.967Z,2.90
2018-04-01T01:52:14.651Z,3.00
2018-04-01T01:54:40.595Z,3.00
2018-04-01T01:57:06.535Z,3.10
2018-04-01T01:59:33.219Z,3.00
2018-04-01T02:01:59.151Z,3.10
2018-04-01T02:04:25.093Z,3.00
2018-04-01T02:06:51.005Z,3.10
2018-04-01T02:09:16.951Z,3.00
2018-04-01T02:11:42.883Z,3.10
2018-04-01T02:14:09.583Z,3.10
2018-04-01T02:16:35.530Z,3.00
2018-04-01T02:19:01.499Z,3.10
2018-04-01T02:21:27.423Z,3.00
2018-04-01T02:23:53.353Z,3.10
2018-04-01T02:26:19.286Z,3.10
2018-04-01T02:28:45.197Z,3.00
2018-04-01T02:31:11.136Z,3.10
2018-04-01T02:33:37.060Z,3.00
2018-04-01T02:36:02.999Z,3.00
2018-04-01T02:38:28.947Z,3.10
2018-04-01T02:40:54.876Z,3.10
2018-04-01T02:43:21.578Z,3.10
2018-04-01T02:45:47.518Z,3.10
2018-04-01T02:48:13.478Z,3.10
2018-04-01T02:50:39.444Z,2.90
2018-04-01T02:53:05.378Z,2.90
2018-04-01T02:55:31.315Z,2.90
2018-04-01T02:57:57.996Z,3.00
2018-04-01T03:00:23.948Z,3.00
2018-04-01T03:02:49.891Z,2.90
2018-04-01T03:05:15.831Z,3.00
2018-04-01T03:07:42.491Z,2.90
2018-04-01T03:10:08.443Z,3.00
2018-04-01T03:12:34.371Z,3.00
2018-04-01T03:15:00.340Z,3.00
2018-04-01T03:17:26.258Z,2.80
2018-04-01T03:19:52.207Z,2.80
2018-04-01T03:22:18.159Z,2.80
2018-04-01T03:24:44.118Z,2.80
2018-04-01T03:27:10.790Z,2.90
2018-04-01T03:29:36.727Z,2.90
2018-04-01T03:32:02.671Z,2.80
2018-04-01T03:34:28.614Z,2.80
2018-04-01T03:36:55.297Z,2.80
2018-04-01T03:39:21.227Z,2.80
2018-04-01T03:41:47.175Z,2.80
2018-04-01T03:44:13.114Z,2.90
2018-04-01T03:46:39.055Z,2.90
2018-04-01T03:49:05.727Z,2.80
2018-04-01T03:51:31.699Z,2.80
2018-04-01T03:53:58.392Z,2.90
2018-04-01T03:56:24.361Z,2.90
2018-04-01T03:58:51.043Z,2.90
2018-04-01T04:01:17.004Z,2.90
2018-04-01T04:03:42.961Z,2.90
2018-04-01T04:06:08.916Z,3.00
2018-04-01T04:08:34.863Z,3.00
2018-04-01T04:11:00.825Z,2.90
2018-04-01T04:13:27.498Z,2.70
2018-04-01T04:15:53.439Z,2.70
2018-04-01T04:18:19.379Z,2.70
2018-04-01T04:20:45.319Z,2.60
2018-04-01T04:23:11.255Z,2.80
2018-04-01T04:25:37.928Z,2.80
2018-04-01T04:28:03.874Z,2.80
2018-04-01T04:30:29.819Z,2.80
2018-04-01T04:32:55.819Z,2.80
2018-04-01T04:35:21.756Z,2.70
2018-04-01T04:37:47.703Z,2.80
2018-04-01T04:40:14.375Z,2.80
2018-04-01T04:42:40.331Z,2.80
2018-04-01T04:45:06.267Z,2.80
2018-04-01T04:47:32.246Z,2.90
2018-04-01T04:49:58.186Z,2.80
2018-04-01T04:52:24.194Z,2.80
2018-04-01T04:54:50.127Z,2.90
2018-04-01T04:57:16.113Z,2.90
2018-04-01T04:59:42.055Z,2.90
2018-04-01T05:02:07.992Z,2.80
2018-04-01T05:04:33.951Z,2.80
2018-04-01T05:07:00.619Z,2.80
2018-04-01T05:09:26.559Z,2.80
2018-04-01T05:11:52.494Z,2.80
2018-04-01T05:14:18.475Z,2.90
2018-04-01T05:16:44.411Z,2.90
2018-04-01T05:19:10.363Z,3.00
2018-04-01T05:21:36.350Z,2.90
2018-04-01T05:24:02.330Z,3.00
2018-04-01T05:26:29.760Z,2.80
2018-04-01T05:28:55.701Z,2.80
2018-04-01T05:31:22.411Z,2.70
2018-04-01T05:33:48.350Z,2.70
2018-04-01T05:36:14.287Z,2.70
2018-04-01T05:38:40.235Z,2.70
2018-04-01T05:41:06.917Z,2.80
2018-04-01T05:43:33.009Z,2.90
2018-04-01T05:45:58.962Z,2.90
2018-04-01T05:48:24.922Z,2.90
2018-04-01T05:50:50.871Z,2.90
2018-04-01T05:53:17.542Z,2.90
2018-04-01T05:55:43.474Z,2.80
2018-04-01T05:58:09.386Z,2.70
2018-04-01T06:00:35.316Z,3.00
2018-04-01T06:03:01.231Z,2.90
2018-04-01T06:05:27.157Z,2.90
2018-04-01T06:07:53.093Z,2.80
2018-04-01T06:10:19.048Z,2.70
2018-04-01T06:12:45.732Z,2.80
2018-04-01T06:15:11.682Z,2.80
2018-04-01T06:17:37.615Z,2.80
2018-04-01T06:20:03.595Z,2.90
2018-04-01T06:22:29.558Z,2.90
2018-04-01T06:24:55.503Z,2.90
2018-04-01T06:27:21.458Z,3.00
2018-04-01T06:29:47.390Z,2.90
2018-04-01T06:32:13.322Z,3.00
2018-04-01T06:34:39.278Z,2.90
2018-04-01T06:37:05.203Z,2.80
2018-04-01T06:39:31.914Z,2.90
2018-04-01T06:41:57.851Z,2.90
2018-04-01T06:44:23.799Z,3.00
2018-04-01T06:46:49.715Z,3.00
2018-04-01T06:49:15.640Z,2.90
2018-04-01T06:51:42.343Z,2.80
2018-04-01T06:54:08.307Z,2.80
2018-04-01T06:56:34.990Z,2.90
2018-04-01T06:59:00.937Z,2.90
2018-04-01T07:01:26.887Z,2.90
2018-04-01T07:03:53.589Z,2.90
2018-04-01T07:06:19.568Z,2.90
2018-04-01T07:08:45.507Z,2.80
2018-04-01T07:11:11.408Z,2.90
2018-04-01T07:13:38.063Z,3.00
2018-04-01T07:16:04.019Z,2.90
2018-04-01T07:18:29.973Z,2.80
2018-04-01T07:20:56.659Z,2.80
2018-04-01T07:23:22.599Z,2.80
2018-04-01T07:25:48.555Z,2.80
2018-04-01T07:28:15.218Z,3.00
2018-04-01T07:30:41.191Z,3.00
2018-04-01T07:33:07.160Z,2.90
2018-04-01T07:35:33.102Z,2.70
2018-04-01T07:37:59.054Z,2.90
2018-04-01T07:40:24.990Z,3.00
2018-04-01T07:42:50.936Z,2.90
2018-04-01T07:45:16.916Z,2.90
2018-04-01T07:47:42.881Z,2.90
2018-04-01T07:50:08.891Z,2.90
2018-04-01T07:52:35.587Z,3.10
2018-04-01T07:55:01.522Z,3.10
2018-04-01T07:57:28.990Z,3.20
2018-04-01T07:59:54.923Z,3.20
2018-04-01T08:02:22.555Z,3.20
2018-04-01T08:04:48.520Z,3.10
2018-04-01T08:07:15.222Z,3.00
2018-04-01T08:09:41.170Z,3.00
2018-04-01T08:12:07.882Z,3.20
2018-04-01T08:14:33.815Z,3.10
2018-04-01T08:16:59.768Z,3.20
2018-04-01T08:19:26.447Z,3.00
2018-04-01T08:21:52.409Z,3.00
2018-04-01T08:24:19.093Z,3.20
2018-04-01T08:26:45.047Z,3.20
2018-04-01T08:29:11.016Z,3.20
2018-04-01T08:31:36.955Z,3.20
2018-04-01T08:34:02.911Z,3.30
2018-04-01T08:36:28.877Z,3.30
2018-04-01T08:38:55.847Z,3.40
2018-04-01T08:41:21.859Z,3.40
2018-04-01T08:43:47.860Z,3.30
2018-04-01T08:46:14.535Z,3.50
2018-04-01T08:48:40.474Z,3.50
2018-04-01T08:51:06.415Z,3.50
2018-04-01T08:53:32.359Z,3.50
2018-04-01T08:55:58.290Z,3.50
2018-04-01T08:58:25.009Z,3.50
2018-04-01T09:00:50.952Z,3.40
2018-04-01T09:03:17.846Z,3.30
2018-04-01T09:05:44.107Z,3.30
2018-04-01T09:08:11.530Z,3.40
2018-04-01T09:10:37.719Z,3.40
2018-04-01T09:13:03.742Z,3.50
2018-04-01T09:15:29.662Z,3.60
2018-04-01T09:17:56.355Z,3.30
2018-04-01T09:20:22.406Z,3.30
2018-04-01T09:22:48.387Z,3.40
2018-04-01T09:25:14.376Z,3.40
2018-04-01T09:27:40.395Z,3.50
2018-04-01T09:30:07.104Z,3.50
2018-04-01T09:32:33.479Z,3.50
2018-04-01T09:34:59.454Z,3.50
2018-04-01T09:37:25.471Z,3.70
2018-04-01T09:39:51.470Z,3.60
2018-04-01T09:42:17.438Z,3.60
2018-04-01T09:44:43.487Z,3.80
2018-04-01T09:47:09.424Z,5.70
2018-04-01T09:49:35.410Z,7.20
2018-04-01T09:52:02.102Z,6.10
2018-04-01T09:54:28.072Z,6.10
2018-04-01T09:56:54.755Z,4.40
2018-04-01T09:59:20.876Z,4.40
2018-04-01T10:01:46.901Z,4.10
2018-04-01T10:04:12.899Z,4.00
2018-04-01T10:06:39.637Z,4.00
2018-04-01T10:09:05.705Z,3.90
2018-04-01T10:11:31.685Z,3.90
2018-04-01T10:13:58.414Z,3.90
2018-04-01T10:16:25.150Z,3.80
2018-04-01T10:18:51.916Z,3.90
2018-04-01T10:21:17.938Z,3.90
2018-04-01T10:23:43.935Z,3.70
2018-04-01T10:26:10.691Z,3.70
2018-04-01T10:28:37.431Z,3.70
2018-04-01T10:31:03.442Z,3.70
2018-04-01T10:33:30.187Z,3.70
2018-04-01T10:35:56.214Z,3.70
2018-04-01T10:38:22.191Z,3.90
2018-04-01T10:40:48.183Z,3.80
2018-04-01T10:43:14.183Z,4.10
2018-04-01T10:45:40.923Z,4.10
2018-04-01T10:48:08.192Z,4.10
2018-04-01T10:50:34.955Z,4.00
2018-04-01T10:53:01.104Z,4.00
2018-04-01T10:55:28.807Z,3.60
2018-04-01T10:57:57.415Z,3.80
2018-04-01T11:00:23.355Z,3.70
2018-04-01T11:02:49.331Z,3.90
2018-04-01T11:05:15.270Z,3.80
2018-04-01T11:07:41.934Z,4.10
2018-04-01T11:10:07.858Z,4.00
2018-04-01T11:12:33.778Z,4.10
2018-04-01T11:14:59.690Z,4.40
2018-04-01T11:17:25.631Z,4.60
2018-04-01T11:19:51.574Z,4.60
2018-04-01T11:22:17.508Z,4.30
2018-04-01T11:24:43.458Z,4.30
2018-04-01T11:27:10.144Z,5.40
2018-04-01T11:29:36.087Z,5.40
2018-04-01T11:32:02.134Z,5.10
2018-04-01T11:34:28.099Z,4.90
2018-04-01T11:36:54.059Z,4.80
2018-04-01T11:39:20.011Z,4.80
2018-04-01T11:41:47.030Z,4.50
2018-04-01T11:44:13.077Z,4.40
2018-04-01T11:46:39.046Z,4.30
2018-04-01T11:49:04.988Z,4.50
2018-04-01T11:51:31.042Z,4.50
2018-04-01T11:53:59.919Z,4.60
2018-04-01T11:56:25.921Z,4.70
2018-04-01T11:58:51.858Z,4.80
2018-04-01T12:01:17.774Z,4.70
2018-04-01T12:03:43.935Z,4.90
2018-04-01T12:06:10.606Z,5.10
2018-04-01T12:08:36.555Z,5.10
2018-04-01T12:11:02.521Z,5.00
2018-04-01T12:13:29.202Z,5.10
2018-04-01T12:15:55.140Z,5.10
2018-04-01T12:18:21.183Z,5.10
2018-04-01T12:20:47.103Z,5.00
2018-04-01T12:23:13.051Z,5.20
2018-04-01T12:25:39.015Z,5.20
2018-04-01T12:28:05.018Z,5.20
2018-04-01T12:30:31.223Z,5.90
2018-04-01T12:32:57.197Z,6.00
2018-04-01T12:35:23.139Z,5.80
2018-04-01T12:37:49.869Z,6.00
2018-04-01T12:40:15.790Z,6.00
2018-04-01T12:42:41.770Z,5.90
2018-04-01T12:45:07.687Z,6.00
2018-04-01T12:47:33.626Z,6.00
2018-04-01T12:49:59.616Z,6.30
2018-04-01T12:52:26.299Z,6.40
2018-04-01T12:54:52.320Z,6.40
2018-04-01T12:57:18.374Z,6.50
2018-04-01T12:59:44.394Z,6.60
2018-04-01T13:02:10.330Z,6.70
2018-04-01T13:04:36.278Z,6.80
2018-04-01T13:07:02.200Z,6.70
2018-04-01T13:09:28.155Z,6.80
2018-04-01T13:11:54.075Z,6.80
2018-04-01T13:14:20.275Z,6.70
2018-04-01T13:16:46.275Z,6.80
2018-04-01T13:19:12.971Z,6.90
2018-04-01T13:21:38.907Z,6.90
2018-04-01T13:24:04.855Z,7.00
2018-04-01T13:26:31.531Z,7.20
2018-04-01T13:28:57.502Z,7.20
2018-04-01T13:31:23.463Z,7.10
2018-04-01T13:33:49.411Z,7.10
2018-04-01T13:36:15.335Z,7.10
2018-04-01T13:38:41.278Z,7.20
2018-04-01T13:41:07.322Z,7.20
2018-04-01T13:43:33.320Z,7.50
2018-04-01T13:45:59.387Z,7.50
2018-04-01T13:48:26.091Z,7.50
2018-04-01T13:50:52.042Z,7.40
2018-04-01T13:53:18.731Z,7.80
2018-04-01T13:55:44.655Z,7.80
2018-04-01T13:58:10.643Z,8.00
2018-04-01T14:00:36.574Z,8.50
2018-04-01T14:03:02.499Z,8.60
2018-04-01T14:05:28.467Z,8.40
2018-04-01T14:07:54.435Z,8.50
2018-04-01T14:10:20.434Z,8.30
2018-04-01T14:12:46.354Z,8.30
2018-04-01T14:15:12.299Z,8.10
2018-04-01T14:17:38.964Z,8.80
2018-04-01T14:20:04.934Z,8.80
2018-04-01T14:22:30.885Z,9.00
2018-04-01T14:24:56.838Z,8.70
2018-04-01T14:27:22.760Z,8.50
2018-04-01T14:29:50.343Z,8.50
2018-04-01T14:32:16.887Z,8.70
2018-04-01T14:34:43.619Z,8.90
2018-04-01T14:37:09.547Z,8.80
2018-04-01T14:39:35.499Z,9.10
2018-04-01T14:42:02.178Z,9.50
2018-04-01T14:44:28.134Z,9.50
2018-04-01T14:46:54.078Z,9.90
2018-04-01T14:49:20.741Z,10.00
2018-04-01T14:51:46.721Z,10.00
2018-04-01T14:54:12.645Z,9.60
2018-04-01T14:56:38.573Z,9.20
2018-04-01T14:59:04.486Z,9.00
2018-04-01T15:01:30.401Z,8.80
2018-04-01T15:03:56.318Z,8.90
2018-04-01T15:06:22.301Z,9.00
2018-04-01T15:08:48.295Z,8.90
2018-04-01T15:11:14.983Z,9.30
2018-04-01T15:13:40.925Z,9.30
2018-04-01T15:16:06.863Z,9.80
2018-04-01T15:18:33.546Z,10.50
2018-04-01T15:20:59.482Z,10.50
2018-04-01T15:23:25.390Z,10.60
2018-04-01T15:25:51.339Z,10.80
2018-04-01T15:28:17.266Z,10.60
2018-04-01T15:30:43.231Z,10.70
2018-04-01T15:33:09.897Z,11.10
2018-04-01T15:35:35.843Z,11.00
2018-04-01T15:38:01.771Z,11.00
2018-04-01T15:40:27.828Z,10.30
2018-04-01T15:42:54.523Z,10.30
2018-04-01T15:45:20.471Z,10.30
2018-04-01T15:47:46.419Z,10.40
2018-04-01T15:50:12.363Z,9.90
2018-04-01T15:52:38.340Z,9.80
2018-04-01T15:55:05.019Z,9.80
2018-04-01T15:57:30.961Z,9.80
2018-04-01T15:59:56.877Z,9.60
2018-04-01T16:02:22.805Z,9.30
2018-04-01T16:04:48.721Z,9.00
2018-04-01T16:07:14.679Z,8.90
2018-04-01T16:09:40.606Z,8.80
2018-04-01T16:12:06.557Z,8.60
2018-04-01T16:14:32.482Z,8.40
2018-04-01T16:16:58.409Z,8.30
2018-04-01T16:19:24.578Z,8.30
2018-04-01T16:21:50.522Z,8.00
2018-04-01T16:24:16.442Z,8.00
2018-04-01T16:26:42.390Z,8.00
2018-04-01T16:29:09.051Z,7.70
2018-04-01T16:31:34.980Z,7.70
2018-04-01T16:34:00.923Z,7.60
2018-04-01T16:36:26.871Z,7.70
2018-04-01T16:38:52.870Z,7.50
2018-04-01T16:41:18.814Z,7.60
2018-04-01T16:43:45.110Z,7.50
2018-04-01T16:46:11.838Z,7.70
2018-04-01T16:48:37.771Z,7.70
2018-04-01T16:51:03.727Z,7.50
2018-04-01T16:53:29.683Z,7.20
2018-04-01T16:55:55.619Z,7.10
2018-04-01T16:58:21.579Z,7.10
2018-04-01T17:00:47.555Z,7.00
2018-04-01T17:03:13.515Z,7.00
2018-04-01T17:05:39.462Z,7.00
2018-04-01T17:08:06.176Z,6.60
2018-04-01T17:10:32.143Z,6.60
2018-04-01T17:12:58.909Z,6.80
2018-04-01T17:15:24.875Z,6.80
2018-04-01T17:17:50.831Z,6.70
2018-04-01T17:20:16.767Z,6.60
2018-04-01T17:22:42.702Z,6.60
2018-04-01T17:25:08.631Z,6.50
2018-04-01T17:27:35.715Z,6.50
2018-04-01T17:30:01.657Z,6.40
2018-04-01T17:32:28.340Z,6.30
2018-04-01T17:34:54.282Z,6.20
2018-04-01T17:37:20.223Z,6.20
2018-04-01T17:39:46.182Z,6.10
2018-04-01T17:42:12.115Z,6.00
2018-04-01T17:44:38.076Z,6.00
2018-04-01T17:47:04.011Z,5.90
2018-04-01T17:49:29.995Z,5.80
2018-04-01T17:51:55.959Z,5.70
2018-04-01T17:54:21.897Z,5.70
2018-04-01T17:56:48.586Z,5.70
2018-04-01T17:59:14.518Z,5.70
2018-04-01T18:01:40.462Z,5.60
2018-04-01T18:04:06.443Z,5.50
2018-04-01T18:06:32.499Z,5.30
2018-04-01T18:08:58.469Z,5.30
2018-04-01T18:11:24.411Z,5.30
2018-04-01T18:13:50.362Z,5.30
2018-04-01T18:16:16.301Z,5.20
2018-04-01T18:18:43.010Z,5.00
2018-04-01T18:21:09.091Z,5.00
2018-04-01T18:23:35.026Z,5.00
2018-04-01T18:26:00.961Z,4.90
2018-04-01T18:28:26.906Z,4.80
2018-04-01T18:30:52.887Z,4.80
2018-04-01T18:33:18.840Z,4.80
2018-04-01T18:35:44.792Z,4.70
2018-04-01T18:38:11.476Z,4.70
2018-04-01T18:40:37.417Z,4.70
2018-04-01T18:43:03.353Z,4.70
2018-04-01T18:45:29.294Z,4.70
2018-04-01T18:47:55.218Z,4.60
2018-04-01T18:50:21.161Z,4.40
2018-04-01T18:52:47.830Z,4.40
2018-04-01T18:55:13.776Z,4.40
2018-04-01T18:57:39.766Z,4.30
2018-04-01T19:00:05.731Z,4.40
2018-04-01T19:02:31.672Z,4.40
2018-04-01T19:04:57.619Z,4.30
2018-04-01T19:07:23.556Z,4.30
2018-04-01T19:09:49.510Z,4.30
2018-04-01T19:12:15.434Z,4.30
2018-04-01T19:14:41.378Z,4.30
2018-04-01T19:17:07.350Z,4.30
2018-04-01T19:19:33.398Z,4.50
2018-04-01T19:22:06.390Z,4.30
2018-04-01T19:24:32.380Z,4.30
2018-04-01T19:26:58.386Z,4.30
2018-04-01T19:29:24.517Z,4.40
2018-04-01T19:31:50.512Z,4.40
2018-04-01T19:34:16.499Z,4.40
2018-04-01T19:36:42.498Z,4.40
2018-04-01T19:39:08.488Z,4.60
2018-04-01T19:41:35.245Z,4.60
2018-04-01T19:44:01.283Z,4.60
2018-04-01T19:46:27.282Z,4.60
2018-04-01T19:48:54.006Z,4.70
2018-04-01T19:51:20.003Z,4.60
2018-04-01T19:53:45.982Z,4.70
2018-04-01T19:56:11.984Z,4.70
2018-04-01T19:58:38.714Z,4.60
2018-04-01T20:01:05.554Z,4.70
2018-04-01T20:03:31.531Z,4.70
2018-04-01T20:05:57.551Z,4.80
2018-04-01T20:08:23.710Z,4.80
2018-04-01T20:10:50.622Z,4.70
2018-04-01T20:13:16.642Z,4.70
2018-04-01T20:15:42.646Z,4.60
2018-04-01T20:18:08.646Z,4.70
2018-04-01T20:20:34.618Z,4.60
2018-04-01T20:23:00.606Z,4.70
2018-04-01T20:25:26.591Z,4.70
2018-04-01T20:27:52.571Z,4.60
2018-04-01T20:30:19.332Z,4.50
2018-04-01T20:32:47.079Z,4.60
2018-04-01T20:35:13.054Z,4.50
2018-04-01T20:37:39.079Z,4.40
2018-04-01T20:40:05.818Z,4.40
2018-04-01T20:42:31.843Z,4.40
2018-04-01T20:44:57.823Z,4.30
2018-04-01T20:47:23.814Z,4.30
2018-04-01T20:49:50.759Z,4.10
2018-04-01T20:52:17.527Z,4.00
2018-04-01T20:54:43.542Z,4.00
2018-04-01T20:57:10.269Z,4.10
2018-04-01T20:59:36.996Z,4.00
2018-04-01T21:02:03.730Z,4.10
2018-04-01T21:04:30.570Z,4.10
2018-04-01T21:06:56.574Z,4.20
2018-04-01T21:09:22.590Z,4.10
2018-04-01T21:11:48.570Z,4.00
2018-04-01T21:14:14.887Z,4.00
2018-04-01T21:16:41.624Z,4.00
2018-04-01T21:19:08.366Z,3.90
2018-04-01T21:21:35.155Z,3.90
2018-04-01T21:24:01.153Z,3.90
2018-04-01T21:26:27.179Z,3.80
2018-04-01T21:28:53.167Z,3.90
2018-04-01T21:31:19.618Z,3.80
2018-04-01T21:33:46.443Z,3.70
2018-04-01T21:36:12.419Z,3.70
2018-04-01T21:38:38.407Z,3.80
2018-04-01T21:41:04.371Z,3.80
2018-04-01T21:43:30.354Z,3.80
2018-04-01T21:45:56.330Z,3.70
2018-04-01T21:48:22.335Z,3.60
2018-04-01T21:50:49.115Z,3.60
2018-04-01T21:53:15.119Z,3.60
2018-04-01T21:55:41.103Z,3.60
2018-04-01T21:58:07.094Z,3.50
2018-04-01T22:00:33.776Z,3.40
2018-04-01T22:02:59.750Z,3.40
2018-04-01T22:05:26.506Z,3.40
2018-04-01T22:07:52.515Z,3.40
2018-04-01T22:10:18.565Z,3.40
2018-04-01T22:12:44.562Z,3.40
2018-04-01T22:15:11.016Z,3.30
2018-04-01T22:17:37.771Z,3.40
2018-04-01T22:20:03.763Z,3.30
2018-04-01T22:22:30.503Z,3.30
2018-04-01T22:24:57.245Z,3.30
2018-04-01T22:27:24.897Z,3.50
2018-04-01T22:29:51.669Z,3.20
2018-04-01T22:32:17.686Z,3.10
2018-04-01T22:34:44.427Z,3.10
2018-04-01T22:37:11.151Z,3.20
2018-04-01T22:39:38.175Z,3.10
2018-04-01T22:42:04.181Z,3.20
2018-04-01T22:44:30.573Z,3.10
2018-04-01T22:46:57.314Z,3.10
2018-04-01T22:49:25.978Z,3.00
2018-04-01T22:51:53.778Z,3.00
2018-04-01T22:54:20.118Z,3.10
2018-04-01T22:56:46.943Z,3.10
2018-04-01T22:59:14.001Z,3.10
2018-04-01T23:01:40.751Z,3.10
2018-04-01T23:04:06.752Z,3.00
2018-04-01T23:06:33.466Z,3.00
2018-04-01T23:09:00.299Z,3.00
2018-04-01T23:11:28.707Z,3.00
2018-04-01T23:13:57.504Z,2.90
2018-04-01T23:16:25.416Z,2.90
2018-04-01T23:18:53.955Z,2.80
2018-04-01T23:21:22.559Z,2.90
2018-04-01T23:23:52.665Z,2.80
2018-04-01T23:26:20.546Z,2.80
2018-04-01T23:28:49.974Z,2.80
2018-04-01T23:31:18.302Z,2.80
2018-04-01T23:33:50.210Z,2.70
2018-04-01T23:36:19.055Z,2.70
2018-04-01T23:38:49.483Z,2.70
2018-04-01T23:41:25.132Z,2.70
2018-04-01T23:43:58.522Z,2.60
2018-04-01T23:46:26.906Z,2.60
2018-04-01T23:49:02.072Z,2.60
2018-04-01T23:51:31.511Z,2.60
2018-04-01T23:54:08.203Z,2.60
2018-04-01T23:56:38.444Z,2.60
2018-04-01T23:59:06.233Z,2.60
